This is the latest recevied weather packets stored in our database for station/object KC9DNQ-3. If no packets are shown the sender has not sent any weather packets the latest 1 day(s).
| Time | Temp. | Humidity | Pressure | Rain* | Wind** | Luminosity | Snow |
|---|---|---|---|---|---|---|---|
| 1777994708 | 11.67° C | 70% | 1008.2 hPa | 0 mm | 0.89 m/s, 262° | 334 W/m² | - |
| 1777994409 | 11.67° C | 73% | 1007.9 hPa | 0 mm | 2.24 m/s, 288° | 949 W/m² | - |
| 1777994108 | 11.11° C | 71% | 1007.9 hPa | 0 mm | 1.34 m/s, 316° | 708 W/m² | - |
| 1777993808 | 10.56° C | 74% | 1008 hPa | 0 mm | 0.89 m/s, 315° | 721 W/m² | - |
| 1777993509 | 10.56° C | 76% | 1008 hPa | 0 mm | 1.34 m/s, 311° | 540 W/m² | - |
| 1777993207 | 10° C | 76% | 1008.3 hPa | 0 mm | 1.79 m/s, 301° | 156 W/m² | - |
| 1777992907 | 9.44° C | 81% | 1008.3 hPa | 0 mm | 1.34 m/s, 293° | 302 W/m² | - |
| 1777992607 | 9.44° C | 81% | 1008.4 hPa | 0 mm | 1.34 m/s, 305° | 193 W/m² | - |
| 1777992308 | 8.89° C | 81% | 1008.4 hPa | 0 mm | 1.34 m/s, 305° | 290 W/m² | - |
| 1777992008 | 8.89° C | 82% | 1008.4 hPa | 0 mm | 0.89 m/s, 295° | 246 W/m² | - |
| 1777991709 | 8.33° C | 83% | 1008.2 hPa | 0.25 mm | 1.34 m/s, 290° | 223 W/m² | - |
| 1777991408 | 8.33° C | 81% | 1008.1 hPa | 0.25 mm | 0.89 m/s, 285° | 132 W/m² | - |
| 1777991108 | 8.33° C | 83% | 1008.1 hPa | 0.25 mm | 0.45 m/s, 284° | 158 W/m² | - |
| 1777990808 | 7.78° C | 82% | 1008.1 hPa | 0.25 mm | 0.45 m/s, 316° | 111 W/m² | - |
| 1777990509 | 7.78° C | 83% | 1008.3 hPa | 0.25 mm | 0.45 m/s, 316° | 111 W/m² | - |
| 1777990209 | 7.78° C | 83% | 1008.4 hPa | 0.51 mm | 0.45 m/s, 316° | 137 W/m² | - |
| 1777989908 | 7.78° C | 82% | 1008.4 hPa | 0.51 mm | 1.79 m/s, 316° | 130 W/m² | - |
| 1777989608 | 7.78° C | 82% | 1008.4 hPa | 0.51 mm | 1.34 m/s, 2° | 93 W/m² | - |
| 1777989309 | 7.78° C | 83% | 1008.7 hPa | 0.76 mm | 0.89 m/s, 22° | 47 W/m² | - |
| 1777989008 | 7.78° C | 83% | 1008.7 hPa | 0.76 mm | 0.89 m/s, 323° | 39 W/m² | - |
| 1777988708 | 7.78° C | 83% | 1008.8 hPa | 0.76 mm | 0.89 m/s, 324° | 51 W/m² | - |
| 1777988408 | 7.78° C | 82% | 1008.9 hPa | 0.76 mm | 1.34 m/s, 321° | 56 W/m² | - |
| 1777988108 | 7.78° C | 81% | 1009 hPa | 0.51 mm | 1.79 m/s, 293° | 49 W/m² | - |
| 1777987808 | 7.78° C | 81% | 1009 hPa | 0.51 mm | 1.34 m/s, 316° | 40 W/m² | - |
| 1777987507 | 7.78° C | 79% | 1009 hPa | 0.51 mm | 1.79 m/s, 307° | 53 W/m² | - |
* Rain latest hour (hover to see other rain measurements)
** Current wind speed in m/s (hover to see current wind gust speed)